Shelton, Connecticut
Current Conditions -  °F | °C
As of 8:52 AM on Wednesday 22 Oct 2014 (Local Time) from KBDR Reporting Station
Overcast Overcast  
Wind Chill: 13°   Ceiling: 1600
Heat Index: 13°   Visibility: 10mi
Dew Point: 10°   Wind: 17mph
Humidity: 83%   Direction: 30°NNE
Pressure: 29.96"   Gusts: 25mph
Location:  41.32°N, 73.11°W
Report Text: KBDR 221252Z 03015G22KT 10SM BKN016 OVC040 13/10 A2996 RMK AO2 SLP144 T01280100
Loading
Personal Weather Stations






























Interactive Weather Map
Tropical Storm Tracking
New forecast layout! Learn more

10-Day Weather Forecast

Advertisements
Track Severe Weather on mobile